This is the latest recevied weather packets stored in our database for station/object KC8YYF. If no packets are shown the sender has not sent any weather packets the latest 10 day(s).
| Time | Temp. | Humidity | Pressure | Rain* | Wind** | Luminosity | Snow |
|---|---|---|---|---|---|---|---|
| 1778006059 | 21.67° C | 60% | 1009.2 hPa | 0 mm | - | 97 W/m² | - |
| 1778005756 | 21.67° C | 57% | 1009.4 hPa | 0 mm | - | 95 W/m² | - |
| 1778005453 | 21.67° C | 61% | 1009.6 hPa | 0 mm | - | 138 W/m² | - |
| 1778005149 | 21.67° C | 60% | 1009.5 hPa | 0 mm | - | 135 W/m² | - |
| 1778004847 | 21.67° C | 57% | 1009.7 hPa | 0 mm | - | 117 W/m² | - |
| 1778004543 | 21.67° C | 59% | 1009.3 hPa | 0 mm | - | 117 W/m² | - |
| 1778004240 | 21.67° C | 61% | 1009.4 hPa | 0 mm | - | 89 W/m² | - |
| 1778003936 | 21.67° C | 59% | 1009.3 hPa | 0 mm | - | 100 W/m² | - |
| 1778003633 | 21.67° C | 58% | 1009.4 hPa | 0 mm | - | 102 W/m² | - |
| 1778003329 | 21.67° C | 57% | 1009.1 hPa | 0 mm | - | 45 W/m² | - |
| 1778003027 | 21.67° C | 58% | 1009.4 hPa | 0 mm | - | 65 W/m² | - |
| 1778002723 | 22.22° C | 60% | 1009.4 hPa | 0 mm | - | 135 W/m² | - |
| 1778002419 | 22.22° C | 54% | 1009.2 hPa | 0 mm | - | 148 W/m² | - |
| 1778002117 | 22.22° C | 54% | 1009.3 hPa | 0 mm | - | 161 W/m² | - |
| 1778001814 | 22.78° C | 55% | 1009.2 hPa | 0 mm | - | 176 W/m² | - |
| 1778001514 | 22.22° C | 58% | 1009.4 hPa | 0 mm | - | 371 W/m² | - |
| 1778001211 | 22.78° C | 57% | 1009.5 hPa | 0 mm | - | 615 W/m² | - |
| 1778000907 | 21.67° C | 56% | 1009.5 hPa | 0 mm | - | 115 W/m² | - |
| 1778000604 | 21.67° C | 57% | 1009.6 hPa | 0 mm | - | 127 W/m² | - |
| 1778000300 | 22.22° C | 55% | 1009.9 hPa | 0 mm | - | 113 W/m² | - |
| 1777999995 | 22.22° C | 56% | 1009.8 hPa | 0 mm | - | 579 W/m² | - |
| 1777999691 | 22.22° C | 58% | 1009.9 hPa | 0 mm | - | 571 W/m² | - |
| 1777999388 | 22.22° C | 57% | 1009.8 hPa | 0 mm | - | 544 W/m² | - |
| 1777999087 | 21.67° C | 60% | 1009.7 hPa | 0 mm | - | 331 W/m² | - |
| 1777998785 | 21.67° C | 58% | 1009.6 hPa | 0 mm | - | 536 W/m² | - |
* Rain latest hour (hover to see other rain measurements)
** Current wind speed in m/s (hover to see current wind gust speed)